Time;durP1;ratioP1;P1;durP2;ratioP2;P2;SDS_P1;SDS_P2;PMS_P1;PMS_P2;Temp;Humidity;BMP_temperature;BMP_pressure;BME280_temperature;BME280_humidity;BME280_pressure;Samples;Min_cycle;Max_cycle;Signal;HPM_P1;HPM_P2
2022/12/19 00:01:15;;;;;;;7.63;6.20;;;18.30;49.90;;;;;;4992318;28;20184;-68
2022/12/19 00:03:51;;;;;;;6.57;5.85;;;18.30;49.90;;;;;;4992104;28;20224;-68
2022/12/19 00:06:19;;;;;;;7.25;6.00;;;18.30;50.10;;;;;;4992287;28;20275;-68
2022/12/19 00:08:48;;;;;;;7.32;6.20;;;18.30;49.90;;;;;;4992233;28;20259;-69
2022/12/19 00:11:16;;;;;;;6.43;5.80;;;18.30;49.90;;;;;;4992247;28;20177;-68
2022/12/19 00:13:42;;;;;;;6.68;5.97;;;18.30;49.90;;;;;;4993164;28;20264;-68
2022/12/19 00:16:15;;;;;;;7.28;6.00;;;18.30;49.90;;;;;;4991880;28;20184;-68
2022/12/19 00:18:44;;;;;;;6.45;5.85;;;18.30;49.90;;;;;;4991884;28;20204;-67
2022/12/19 00:21:13;;;;;;;5.75;5.18;;;18.30;49.90;;;;;;4991726;28;20177;-68
2022/12/19 00:23:39;;;;;;;6.40;5.78;;;18.30;49.90;;;;;;4991917;28;20211;-68
2022/12/19 00:26:15;;;;;;;6.75;5.78;;;18.30;49.90;;;;;;4991856;28;20177;-68
2022/12/19 00:28:44;;;;;;;7.10;6.40;;;18.30;49.90;;;;;;4975550;28;20271;-67
2022/12/19 00:31:10;;;;;;;8.50;6.53;;;18.30;49.90;;;;;;4975412;28;20169;-68
2022/12/19 00:33:35;;;;;;;8.85;6.47;;;18.30;49.90;;;;;;4975465;28;20212;-68
2022/12/19 00:36:17;;;;;;;6.95;6.00;;;18.30;49.90;;;;;;4991541;28;20221;-68
2022/12/19 00:38:45;;;;;;;6.53;5.65;;;18.30;49.90;;;;;;4992016;28;20204;-68
2022/12/19 00:41:33;;;;;;;7.43;5.95;;;18.30;49.90;;;;;;5008246;28;20177;-68
2022/12/19 00:44:03;;;;;;;7.20;5.95;;;18.30;49.90;;;;;;4975481;28;20197;-68
2022/12/19 00:46:31;;;;;;;6.75;6.05;;;18.30;49.90;;;;;;4992513;28;20219;-68
2022/12/19 00:48:59;;;;;;;6.43;5.82;;;18.40;50.00;;;;;;4991731;28;20247;-68
2022/12/19 00:51:32;;;;;;;6.85;5.80;;;18.30;49.90;;;;;;4992610;28;20188;-68
2022/12/19 00:53:58;;;;;;;7.03;6.32;;;18.30;49.90;;;;;;4995329;28;20204;-68
2022/12/19 00:56:28;;;;;;;7.07;6.32;;;18.30;49.90;;;;;;4996765;28;20189;-68
2022/12/19 00:58:54;;;;;;;6.63;5.97;;;18.30;49.90;;;;;;5011903;28;20212;-67
2022/12/19 01:01:23;;;;;;;7.60;5.93;;;18.30;49.90;;;;;;5011560;28;20557;-68
2022/12/19 01:03:49;;;;;;;6.88;6.15;;;18.30;49.90;;;;;;4995457;28;20184;-68
2022/12/19 01:06:15;;;;;;;7.38;6.03;;;18.30;49.90;;;;;;4996440;28;20181;-68
2022/12/19 01:08:41;;;;;;;7.25;6.55;;;18.30;49.90;;;;;;5011668;28;20201;-68
2022/12/19 01:11:07;;;;;;;6.75;6.05;;;18.40;50.00;;;;;;4978844;28;20188;-68
2022/12/19 01:13:38;;;;;;;6.30;5.70;;;18.40;50.00;;;;;;5011550;28;20190;-68
2022/12/19 01:16:12;;;;;;;7.30;5.60;;;18.40;50.00;;;;;;4995497;28;20189;-68
2022/12/19 01:18:38;;;;;;;6.53;5.80;;;18.40;50.00;;;;;;5011775;28;20235;-68
2022/12/19 01:21:09;;;;;;;7.30;6.35;;;18.40;50.00;;;;;;5011229;28;20242;-69
2022/12/19 01:23:35;;;;;;;6.90;6.13;;;18.40;50.00;;;;;;5011512;28;20597;-68
2022/12/19 01:26:01;;;;;;;6.22;5.63;;;18.40;50.00;;;;;;5011711;28;20181;-68
2022/12/19 01:28:28;;;;;;;6.35;5.70;;;18.40;50.00;;;;;;5011143;28;20319;-68
2022/12/19 01:30:55;;;;;;;6.10;5.50;;;18.40;50.00;;;;;;4978527;28;20220;-68
2022/12/19 01:33:21;;;;;;;6.82;6.13;;;18.40;50.00;;;;;;4978613;28;20212;-68
2022/12/19 01:35:48;;;;;;;6.57;5.95;;;18.40;50.00;;;;;;4978612;28;20699;-68
2022/12/19 01:38:19;;;;;;;7.47;6.22;;;18.40;50.00;;;;;;4995067;28;20215;-68
2022/12/19 01:40:56;;;;;;;6.68;6.00;;;18.40;50.00;;;;;;4978612;28;20189;-68
2022/12/19 01:43:24;;;;;;;6.43;5.70;;;18.40;50.00;;;;;;5011111;28;20187;-68
2022/12/19 01:46:02;;;;;;;6.72;6.03;;;18.40;50.00;;;;;;4978651;28;20208;-68
2022/12/19 01:48:35;;;;;;;7.65;6.43;;;18.40;50.00;;;;;;5010784;28;20216;-69
2022/12/19 01:51:11;;;;;;;6.90;6.20;;;18.40;50.00;;;;;;4978497;28;20177;-68
2022/12/19 01:53:43;;;;;;;6.93;6.00;;;18.40;50.00;;;;;;4994934;28;20192;-68
2022/12/19 01:56:11;;;;;;;6.40;5.70;;;18.40;50.00;;;;;;5010868;28;20261;-68
2022/12/19 01:58:46;;;;;;;7.13;5.90;;;18.40;50.00;;;;;;5010773;28;20208;-68
2022/12/19 02:01:15;;;;;;;6.43;5.82;;;18.40;50.00;;;;;;5010452;28;20180;-68
2022/12/19 02:03:41;;;;;;;7.35;6.25;;;18.40;50.00;;;;;;4994607;28;20176;-68
2022/12/19 02:06:11;;;;;;;6.85;6.07;;;18.40;50.00;;;;;;4977119;28;20220;-68
2022/12/19 02:08:46;;;;;;;6.80;6.10;;;18.40;50.00;;;;;;4995182;28;20212;-68
2022/12/19 02:11:12;;;;;;;6.63;6.03;;;18.40;50.00;;;;;;4977983;28;20173;-68
2022/12/19 02:13:39;;;;;;;6.68;5.80;;;18.40;50.00;;;;;;4994165;28;20183;-68
2022/12/19 02:16:44;;;;;;;7.55;6.35;;;18.40;50.00;;;;;;5010445;28;20176;-68
2022/12/19 02:19:25;;;;;;;7.00;6.30;;;18.40;50.00;;;;;;5010304;28;20204;-68
2022/12/19 02:22:03;;;;;;;6.72;5.97;;;18.40;50.00;;;;;;4993921;28;20287;-68
2022/12/19 02:25:03;;;;;;;7.40;6.30;;;18.40;50.00;;;;;;4993897;28;20188;-68
2022/12/19 02:28:30;;;;;;;7.60;6.43;;;18.40;50.00;;;;;;4977867;28;20223;-68
2022/12/19 02:31:23;;;;;;;6.68;5.82;;;18.40;50.00;;;;;;4977512;28;20297;-68
2022/12/19 02:34:19;;;;;;;7.78;6.32;;;18.40;50.00;;;;;;4986024;28;20391;-68
2022/12/19 02:37:23;;;;;;;6.82;6.13;;;18.40;50.00;;;;;;4993680;28;20188;-68
2022/12/19 02:39:57;;;;;;;6.95;6.25;;;18.40;50.00;;;;;;4993751;28;20253;-69
2022/12/19 02:42:31;;;;;;;8.05;6.60;;;18.50;50.10;;;;;;4993914;28;20196;-68
2022/12/19 02:45:05;;;;;;;7.28;6.30;;;18.50;50.10;;;;;;4977882;28;20207;-68
2022/12/19 02:47:33;;;;;;;7.00;6.30;;;18.40;50.00;;;;;;4976325;28;20208;-68
2022/12/19 02:50:01;;;;;;;6.70;5.95;;;18.50;50.10;;;;;;4957813;28;20296;-67
2022/12/19 02:52:28;;;;;;;7.75;6.60;;;18.50;50.10;;;;;;4974385;28;20205;-68
2022/12/19 02:55:12;;;;;;;6.75;6.05;;;18.50;50.10;;;;;;4957958;28;20186;-68
2022/12/19 02:58:03;;;;;;;5.72;5.13;;;18.50;50.10;;;;;;4958061;28;20224;-69
2022/12/19 03:00:43;;;;;;;6.43;5.70;;;18.50;50.70;;;;;;4957799;28;20195;-68
2022/12/19 03:03:50;;;;;;;7.38;6.28;;;18.50;50.10;;;;;;4975078;28;20232;-68
2022/12/19 03:06:51;;;;;;;6.90;5.75;;;18.50;50.10;;;;;;4986868;28;20189;-68
2022/12/19 03:09:39;;;;;;;8.50;6.85;;;18.50;50.10;;;;;;4993346;28;20213;-69
2022/12/19 03:12:15;;;;;;;7.30;6.40;;;18.50;50.10;;;;;;4977186;28;20251;-68
2022/12/19 03:14:42;;;;;;;7.15;6.30;;;18.50;50.10;;;;;;4992979;28;20176;-69
2022/12/19 03:17:08;;;;;;;7.30;6.50;;;18.50;50.10;;;;;;4992726;28;20180;-69
2022/12/19 03:19:37;;;;;;;7.82;7.03;;;18.50;50.10;;;;;;4993037;28;20376;-68
2022/12/19 03:22:03;;;;;;;6.80;6.10;;;18.50;50.10;;;;;;4992830;28;20652;-69
2022/12/19 03:24:29;;;;;;;6.85;5.95;;;18.50;50.10;;;;;;4992915;28;20184;-68
2022/12/19 03:27:01;;;;;;;7.20;6.18;;;18.50;50.10;;;;;;4993006;28;20710;-68
2022/12/19 03:29:51;;;;;;;7.30;6.50;;;18.50;50.10;;;;;;4976380;28;20217;-68
2022/12/19 03:32:18;;;;;;;7.57;6.22;;;18.50;50.10;;;;;;4992216;28;20181;-68
2022/12/19 03:34:54;;;;;;;7.28;5.95;;;18.50;50.10;;;;;;4992793;28;20251;-68
2022/12/19 03:37:24;;;;;;;8.32;6.72;;;18.50;50.10;;;;;;4975865;28;20751;-69
2022/12/19 03:39:57;;;;;;;6.72;5.90;;;18.50;50.10;;;;;;4993882;28;20222;-68
2022/12/19 03:45:17;;;;;;;8.05;6.68;;;18.50;50.10;;;;;;4992406;28;20251;-68
2022/12/19 03:47:56;;;;;;;6.95;6.05;;;18.50;50.10;;;;;;4992498;28;20240;-68
2022/12/19 03:50:26;;;;;;;7.25;6.15;;;18.50;50.10;;;;;;4993476;28;20177;-68
2022/12/19 03:53:09;;;;;;;7.57;6.60;;;18.50;50.10;;;;;;4992625;28;20292;-68
2022/12/19 03:55:57;;;;;;;7.40;6.45;;;18.50;50.10;;;;;;4976459;28;20192;-68
2022/12/19 03:58:37;;;;;;;6.57;5.80;;;18.60;50.20;;;;;;4992295;28;20204;-69
2022/12/19 04:01:04;;;;;;;6.45;5.53;;;18.50;50.10;;;;;;4991950;28;20192;-68
2022/12/19 04:03:31;;;;;;;7.38;6.20;;;18.60;50.20;;;;;;4993350;28;20188;-68
2022/12/19 04:06:00;;;;;;;7.75;6.68;;;18.60;50.20;;;;;;4992165;28;20193;-69
2022/12/19 04:08:29;;;;;;;7.75;6.60;;;18.60;50.20;;;;;;4992146;28;20224;-68
2022/12/19 04:11:03;;;;;;;7.82;6.60;;;18.60;50.20;;;;;;4991816;28;20592;-68
2022/12/19 04:13:55;;;;;;;8.60;6.93;;;18.60;50.20;;;;;;4975705;28;20215;-68
2022/12/19 04:16:46;;;;;;;7.40;6.18;;;18.60;50.20;;;;;;4992273;28;20259;-68
2022/12/19 04:19:39;;;;;;;7.78;6.10;;;18.60;50.20;;;;;;4975995;28;20209;-68
2022/12/19 04:22:20;;;;;;;7.20;6.50;;;18.60;50.20;;;;;;4991890;28;20292;-68
2022/12/19 04:24:49;;;;;;;7.03;6.20;;;18.60;50.20;;;;;;4993106;28;20172;-68
2022/12/19 04:27:16;;;;;;;6.95;6.20;;;18.60;50.20;;;;;;4975782;28;20303;-68
2022/12/19 04:29:42;;;;;;;7.95;6.70;;;18.60;50.40;;;;;;4992652;28;20212;-68
2022/12/19 04:32:09;;;;;;;7.22;6.25;;;18.60;50.40;;;;;;4991944;28;20681;-68
2022/12/19 04:34:35;;;;;;;8.32;6.75;;;18.60;50.40;;;;;;4991840;28;20192;-68
2022/12/19 04:37:01;;;;;;;7.32;6.25;;;18.60;50.30;;;;;;4991789;28;20191;-67
2022/12/19 04:39:27;;;;;;;6.93;5.93;;;18.60;50.40;;;;;;4991839;28;20208;-68
2022/12/19 04:41:53;;;;;;;6.82;5.82;;;18.60;50.40;;;;;;4991933;28;20224;-68
2022/12/19 04:44:18;;;;;;;7.13;6.10;;;18.60;50.50;;;;;;4991907;28;20193;-68
2022/12/19 04:46:44;;;;;;;6.82;5.78;;;18.60;50.40;;;;;;4992017;28;20239;-68
2022/12/19 04:49:10;;;;;;;6.15;5.43;;;18.60;50.50;;;;;;4991670;28;20208;-68
2022/12/19 04:51:35;;;;;;;6.68;5.97;;;18.60;50.40;;;;;;4991562;28;20177;-68
2022/12/19 04:54:01;;;;;;;7.15;6.10;;;18.60;50.40;;;;;;4991553;28;20195;-68
2022/12/19 04:56:27;;;;;;;7.05;6.15;;;18.60;50.50;;;;;;4991539;28;20220;-68
2022/12/19 04:58:59;;;;;;;6.88;6.18;;;18.60;50.50;;;;;;4991657;28;20278;-68
2022/12/19 05:01:26;;;;;;;7.20;6.18;;;18.60;50.60;;;;;;4991459;28;20193;-68
2022/12/19 05:03:52;;;;;;;7.50;6.20;;;18.60;50.60;;;;;;4992883;28;20181;-68
2022/12/19 05:06:19;;;;;;;7.03;6.22;;;18.60;50.60;;;;;;4991375;28;20279;-68
2022/12/19 05:08:44;;;;;;;7.03;6.32;;;18.60;50.60;;;;;;4992923;28;20205;-68
2022/12/19 05:11:14;;;;;;;6.60;5.90;;;18.60;50.60;;;;;;4991530;28;20243;-68
2022/12/19 05:13:39;;;;;;;7.85;6.65;;;18.60;50.60;;;;;;4991400;28;20235;-68
2022/12/19 05:16:09;;;;;;;7.55;6.60;;;18.60;50.60;;;;;;4975314;28;20223;-68
2022/12/19 05:18:36;;;;;;;7.20;6.40;;;18.60;51.10;;;;;;4991447;28;20303;-68
2022/12/19 05:21:04;;;;;;;6.78;6.13;;;18.60;50.70;;;;;;4973735;28;20188;-68
2022/12/19 05:23:29;;;;;;;7.70;6.50;;;18.70;50.70;;;;;;4975464;28;20185;-68
2022/12/19 05:26:01;;;;;;;7.78;6.93;;;18.60;50.70;;;;;;5007884;28;20195;-68
2022/12/19 05:28:27;;;;;;;6.72;6.07;;;18.70;50.70;;;;;;5007286;28;20217;-68
2022/12/19 05:31:06;;;;;;;7.20;6.15;;;18.70;50.70;;;;;;4991156;28;20196;-68
2022/12/19 05:33:33;;;;;;;7.45;6.47;;;18.70;50.80;;;;;;4955647;28;20201;-68
2022/12/19 05:35:59;;;;;;;7.90;6.40;;;18.70;50.80;;;;;;4971644;28;20273;-68
2022/12/19 05:38:25;;;;;;;6.93;5.82;;;18.60;50.70;;;;;;4971623;28;20206;-68
2022/12/19 05:40:51;;;;;;;5.95;5.35;;;18.70;50.80;;;;;;4974992;28;20193;-68
2022/12/19 05:43:17;;;;;;;7.38;6.57;;;18.60;50.80;;;;;;4975257;28;20181;-68
2022/12/19 05:45:43;;;;;;;6.75;6.05;;;18.70;50.80;;;;;;4975155;28;20189;-68
2022/12/19 05:48:08;;;;;;;7.40;6.28;;;18.70;50.80;;;;;;4976116;28;20224;-68
2022/12/19 05:50:34;;;;;;;7.70;6.90;;;18.70;50.90;;;;;;4976352;28;20228;-68
2022/12/19 05:53:07;;;;;;;7.47;6.78;;;18.70;50.90;;;;;;4960321;28;20178;-68
2022/12/19 05:55:33;;;;;;;7.65;6.50;;;18.70;50.90;;;;;;4975037;28;20189;-68
2022/12/19 05:57:59;;;;;;;8.25;7.32;;;18.70;50.90;;;;;;4974898;28;20212;-69
2022/12/19 06:00:24;;;;;;;7.93;7.13;;;18.70;50.90;;;;;;4974729;28;20201;-68
2022/12/19 06:02:50;;;;;;;8.38;7.38;;;18.70;50.90;;;;;;4974899;28;20213;-68
2022/12/19 06:05:16;;;;;;;8.90;7.65;;;18.70;50.90;;;;;;4975244;28;20305;-68
2022/12/19 06:07:42;;;;;;;8.70;7.78;;;18.70;50.90;;;;;;4974791;28;20202;-68
2022/12/19 06:10:08;;;;;;;8.35;7.55;;;18.70;50.90;;;;;;4958777;28;20192;-68
2022/12/19 06:12:33;;;;;;;8.43;7.45;;;18.70;50.90;;;;;;4974574;28;20247;-69
2022/12/19 06:14:59;;;;;;;8.40;7.43;;;18.70;51.00;;;;;;4974138;28;20193;-69
2022/12/19 06:17:25;;;;;;;9.70;8.10;;;18.70;50.90;;;;;;4974332;28;20273;-69
2022/12/19 06:19:50;;;;;;;8.68;7.78;;;18.70;51.00;;;;;;4975338;28;20220;-69
2022/12/19 06:22:16;;;;;;;8.27;7.25;;;18.70;51.00;;;;;;4974044;28;20208;-69
2022/12/19 06:24:42;;;;;;;7.97;7.18;;;18.70;51.00;;;;;;4974100;28;20193;-68
2022/12/19 06:27:07;;;;;;;7.78;6.97;;;18.70;51.00;;;;;;4957710;28;20255;-69
2022/12/19 06:29:33;;;;;;;9.00;7.50;;;18.70;51.00;;;;;;4974003;28;20209;-69
2022/12/19 06:31:59;;;;;;;9.35;8.35;;;18.70;51.00;;;;;;5004905;28;20192;-69
2022/12/19 06:34:25;;;;;;;9.27;8.23;;;18.70;51.00;;;;;;4977115;28;20193;-69
2022/12/19 06:36:53;;;;;;;10.68;8.45;;;18.70;51.00;;;;;;4977015;28;20660;-69
2022/12/19 06:39:19;;;;;;;10.23;9.13;;;18.70;51.00;;;;;;4993218;28;20208;-69
2022/12/19 06:44:31;;;;;;;10.10;8.85;;;18.70;51.00;;;;;;4993351;28;20565;-69
2022/12/19 06:46:56;;;;;;;9.48;8.52;;;18.70;51.10;;;;;;4976624;28;20200;-69
2022/12/19 06:49:22;;;;;;;11.50;9.55;;;18.70;51.10;;;;;;4992465;28;20620;-69
2022/12/19 06:51:48;;;;;;;10.27;9.15;;;18.70;51.10;;;;;;4972869;28;20193;-69
2022/12/19 06:54:14;;;;;;;10.77;9.65;;;18.70;51.10;;;;;;4973537;28;20220;-69
2022/12/19 06:56:42;;;;;;;10.35;9.20;;;18.80;51.20;;;;;;4979618;28;20254;-68
2022/12/19 06:59:13;;;;;;;9.82;8.82;;;18.70;51.10;;;;;;4976811;28;20296;-69
2022/12/19 07:02:00;;;;;;;10.73;9.60;;;18.70;51.20;;;;;;4992825;28;20240;-69
2022/12/19 07:04:33;;;;;;;9.85;8.85;;;18.70;51.20;;;;;;4992648;28;20193;-68
2022/12/19 07:06:59;;;;;;;10.32;8.48;;;18.70;51.10;;;;;;4976790;28;20224;-68
2022/12/19 07:09:27;;;;;;;9.98;8.40;;;18.80;51.30;;;;;;4976523;28;20299;-69
2022/12/19 07:11:53;;;;;;;9.43;8.48;;;18.70;51.20;;;;;;4992372;28;20212;-69
2022/12/19 07:14:18;;;;;;;10.48;8.55;;;18.80;51.30;;;;;;4976198;28;20645;-69
2022/12/19 07:16:46;;;;;;;9.48;8.48;;;18.70;51.20;;;;;;5008868;28;20185;-69
2022/12/19 07:19:13;;;;;;;9.77;8.68;;;18.70;51.20;;;;;;4976129;28;20212;-68
2022/12/19 07:21:39;;;;;;;9.45;8.50;;;18.80;51.30;;;;;;4986837;28;20178;-69
2022/12/19 07:24:06;;;;;;;10.60;9.32;;;18.80;51.20;;;;;;4967001;28;20196;-69
2022/12/19 07:26:32;;;;;;;10.40;9.30;;;18.80;51.30;;;;;;4966955;28;20185;-69
2022/12/19 07:28:59;;;;;;;9.32;8.43;;;18.80;51.80;;;;;;4982844;28;20215;-69
2022/12/19 07:31:25;;;;;;;9.65;8.68;;;18.80;51.30;;;;;;4981389;28;20679;-69
2022/12/19 07:33:50;;;;;;;10.05;9.05;;;18.80;51.30;;;;;;4983013;28;20272;-69
2022/12/19 07:36:16;;;;;;;8.73;7.88;;;18.80;51.40;;;;;;4983179;28;20193;-69
2022/12/19 07:38:43;;;;;;;9.48;8.13;;;18.80;51.30;;;;;;4983073;28;20243;-69
2022/12/19 07:41:08;;;;;;;9.10;8.20;;;18.80;51.40;;;;;;4979997;28;20189;-69
2022/12/19 07:43:34;;;;;;;9.43;8.45;;;18.80;51.40;;;;;;4982907;28;20578;-69
2022/12/19 07:46:00;;;;;;;9.55;8.45;;;18.80;51.40;;;;;;4980935;28;20213;-69
2022/12/19 07:48:27;;;;;;;8.30;7.50;;;18.80;51.40;;;;;;4982110;28;20208;-69
2022/12/19 07:50:53;;;;;;;9.10;8.13;;;18.80;51.40;;;;;;4965949;28;20192;-69
2022/12/19 07:53:19;;;;;;;8.85;7.88;;;18.80;51.40;;;;;;4965152;28;20189;-69
2022/12/19 07:55:44;;;;;;;8.95;8.02;;;18.80;51.40;;;;;;4980784;28;20188;-69
2022/12/19 07:58:10;;;;;;;8.45;7.45;;;18.80;51.40;;;;;;4962685;28;20217;-70
2022/12/19 08:00:39;;;;;;;9.18;8.10;;;18.80;51.40;;;;;;4976195;28;20209;-70
2022/12/19 08:03:05;;;;;;;7.88;7.07;;;18.80;51.40;;;;;;4982665;28;20197;-70
2022/12/19 08:05:30;;;;;;;7.47;6.78;;;18.80;51.40;;;;;;4982838;28;20180;-70
2022/12/19 08:07:56;;;;;;;7.75;6.95;;;18.80;51.40;;;;;;4985129;28;20291;-70
2022/12/19 08:10:22;;;;;;;7.78;7.03;;;18.80;51.40;;;;;;4969718;28;20189;-71
2022/12/19 08:12:48;;;;;;;8.10;6.95;;;18.80;51.40;;;;;;4975118;28;20183;-70
2022/12/19 08:15:14;;;;;;;8.88;7.35;;;18.80;51.50;;;;;;4971416;28;20196;-69
2022/12/19 08:17:39;;;;;;;7.97;7.18;;;18.80;51.50;;;;;;4989628;28;20212;-69
2022/12/19 08:20:07;;;;;;;8.50;7.70;;;18.80;51.50;;;;;;4974993;28;20693;-67
2022/12/19 08:22:33;;;;;;;7.43;6.72;;;18.80;51.50;;;;;;4975106;28;20594;-68
2022/12/19 08:24:59;;;;;;;8.15;7.35;;;18.80;51.40;;;;;;4991503;28;20188;-69
2022/12/19 08:27:26;;;;;;;8.45;7.40;;;18.90;51.60;;;;;;4991455;28;20220;-68
2022/12/19 08:29:51;;;;;;;8.68;7.13;;;18.90;51.60;;;;;;4991128;28;20219;-69
2022/12/19 08:32:18;;;;;;;8.15;7.35;;;18.90;51.60;;;;;;4991264;28;20181;-69
2022/12/19 08:34:44;;;;;;;7.40;6.70;;;18.90;51.60;;;;;;4991116;28;20272;-68
2022/12/19 08:37:10;;;;;;;7.38;6.68;;;18.90;51.60;;;;;;4991383;28;20279;-68
2022/12/19 08:39:35;;;;;;;7.60;6.90;;;18.90;51.60;;;;;;4991261;28;20208;-69
2022/12/19 08:42:01;;;;;;;8.02;7.22;;;18.90;51.60;;;;;;4991060;28;20219;-68
2022/12/19 08:44:27;;;;;;;9.52;7.07;;;18.90;51.60;;;;;;4992022;28;20189;-68
2022/12/19 08:46:53;;;;;;;7.25;6.53;;;18.90;51.70;;;;;;4971110;28;20260;-69
2022/12/19 08:49:19;;;;;;;8.60;6.90;;;18.90;51.60;;;;;;4971775;28;20208;-68
2022/12/19 08:51:45;;;;;;;7.85;7.00;;;18.90;51.60;;;;;;4971649;28;20251;-68
2022/12/19 08:54:11;;;;;;;7.53;6.78;;;18.90;51.60;;;;;;4955506;28;20239;-68
2022/12/19 08:56:38;;;;;;;7.18;6.47;;;18.90;52.20;;;;;;4977440;28;20189;-69
2022/12/19 08:59:03;;;;;;;6.70;6.05;;;18.90;51.60;;;;;;4975254;28;20275;-69
2022/12/19 09:01:29;;;;;;;6.82;6.13;;;18.90;51.70;;;;;;4974993;28;20185;-69
2022/12/19 09:03:59;;;;;;;6.63;5.90;;;18.90;51.70;;;;;;4991189;28;20182;-68
2022/12/19 09:06:25;;;;;;;6.80;6.10;;;18.90;51.60;;;;;;4974810;28;20185;-69
2022/12/19 09:08:51;;;;;;;6.38;5.78;;;18.90;51.70;;;;;;4990908;28;20254;-68
2022/12/19 09:11:19;;;;;;;6.97;6.25;;;18.90;51.70;;;;;;4974728;28;20188;-68
2022/12/19 09:13:47;;;;;;;6.95;6.22;;;18.90;51.70;;;;;;4991136;28;20184;-68
2022/12/19 09:16:17;;;;;;;6.32;5.70;;;18.90;51.70;;;;;;4996038;28;20265;-69
2022/12/19 09:18:46;;;;;;;6.22;5.53;;;18.90;51.70;;;;;;4994848;28;20231;-69
2022/12/19 09:21:14;;;;;;;6.22;5.63;;;18.90;51.70;;;;;;4994578;28;20192;-69
2022/12/19 09:23:41;;;;;;;6.22;5.63;;;18.90;51.70;;;;;;4978579;28;20653;-68
2022/12/19 09:26:10;;;;;;;6.82;6.05;;;18.90;51.70;;;;;;4978655;28;20197;-68
2022/12/19 09:28:39;;;;;;;7.32;6.00;;;18.90;51.70;;;;;;4978332;28;20228;-68
2022/12/19 09:31:13;;;;;;;7.45;5.93;;;18.90;51.70;;;;;;4994420;28;20181;-69
2022/12/19 09:33:39;;;;;;;7.80;5.75;;;18.90;51.70;;;;;;4978301;28;20271;-69
2022/12/19 09:36:07;;;;;;;6.35;5.03;;;18.90;51.70;;;;;;4994622;28;20244;-68
2022/12/19 09:38:33;;;;;;;7.80;6.15;;;18.90;51.70;;;;;;4976471;28;20208;-68
2022/12/19 09:41:41;;;;;;;5.82;5.32;;;18.90;51.70;;;;;;4994332;28;20200;-68
2022/12/19 09:44:54;;;;;;;6.03;5.25;;;19.00;51.70;;;;;;4995450;28;20188;-68
2022/12/19 09:47:25;;;;;;;6.18;5.57;;;19.00;51.70;;;;;;4977900;28;20216;-68
2022/12/19 09:49:53;;;;;;;6.85;5.70;;;19.00;51.80;;;;;;4994079;28;20296;-68
2022/12/19 09:52:36;;;;;;;7.50;6.20;;;19.00;51.70;;;;;;4978031;28;20192;-69
2022/12/19 09:55:31;;;;;;;6.45;5.03;;;19.00;51.80;;;;;;4977851;28;20228;-69
2022/12/19 09:58:04;;;;;;;5.90;5.28;;;19.00;51.70;;;;;;4996944;28;20188;-68
2022/12/19 10:00:48;;;;;;;6.03;5.00;;;19.00;51.70;;;;;;4993899;28;20189;-68
2022/12/19 10:03:33;;;;;;;6.03;5.18;;;19.00;51.70;;;;;;4994123;28;20716;-68
2022/12/19 10:06:20;;;;;;;6.05;5.18;;;19.00;51.80;;;;;;4978170;28;20176;-68
2022/12/19 10:08:47;;;;;;;6.82;5.00;;;19.00;51.80;;;;;;4978263;28;20691;-68
2022/12/19 10:11:30;;;;;;;7.88;4.70;;;19.00;52.20;;;;;;4978285;28;20192;-68
2022/12/19 10:14:44;;;;;;;6.55;5.43;;;19.00;52.40;;;;;;4978167;28;20263;-69
2022/12/19 10:17:48;;;;;;;5.25;4.75;;;19.00;52.30;;;;;;4971184;28;20196;-69
2022/12/19 10:20:25;;;;;;;5.95;5.32;;;19.10;52.40;;;;;;4984811;28;20200;-68
2022/12/19 10:23:35;;;;;;;6.90;5.00;;;19.10;52.40;;;;;;4993882;28;20192;-69
2022/12/19 10:26:39;;;;;;;5.68;4.90;;;19.10;52.40;;;;;;4976821;28;20275;-69
2022/12/19 10:29:42;;;;;;;5.63;5.00;;;19.10;52.40;;;;;;4987493;28;20232;-69
2022/12/19 10:33:07;;;;;;;6.30;5.43;;;19.10;52.40;;;;;;4977596;28;20192;-69
2022/12/19 10:35:41;;;;;;;6.88;4.75;;;19.10;52.30;;;;;;4956903;28;20193;-69
2022/12/19 10:38:15;;;;;;;6.22;4.85;;;19.10;52.20;;;;;;4958251;28;20558;-69
2022/12/19 10:41:02;;;;;;;5.88;5.28;;;19.10;52.40;;;;;;4988210;28;20210;-68
2022/12/19 10:43:52;;;;;;;6.07;5.45;;;19.10;52.30;;;;;;4994129;28;20180;-69
2022/12/19 10:46:40;;;;;;;6.55;5.30;;;19.10;52.30;;;;;;4994072;28;20189;-69
2022/12/19 10:49:24;;;;;;;5.50;4.90;;;19.10;52.20;;;;;;4993273;28;20231;-69
2022/12/19 10:52:04;;;;;;;5.80;5.25;;;19.10;52.30;;;;;;4994517;28;20212;-68
2022/12/19 10:54:36;;;;;;;5.93;5.32;;;19.10;52.30;;;;;;4977546;28;20185;-68
2022/12/19 10:57:21;;;;;;;6.72;5.60;;;19.10;52.30;;;;;;4993841;28;20224;-69
2022/12/19 11:00:17;;;;;;;6.65;5.85;;;19.10;52.30;;;;;;4992648;28;20216;-69
2022/12/19 11:02:47;;;;;;;6.10;5.50;;;19.10;52.20;;;;;;4976882;28;20235;-69
2022/12/19 11:05:53;;;;;;;6.88;5.47;;;19.20;52.20;;;;;;4993911;28;20732;-69
2022/12/19 11:08:33;;;;;;;6.68;5.68;;;19.20;52.30;;;;;;4988699;28;20307;-69
2022/12/19 11:11:04;;;;;;;6.38;5.40;;;19.20;52.30;;;;;;4976744;28;20187;-69
2022/12/19 11:13:33;;;;;;;6.15;5.55;;;19.20;52.30;;;;;;4994276;28;20617;-69
2022/12/19 11:16:02;;;;;;;8.65;5.85;;;19.20;52.30;;;;;;4993237;28;20235;-66
2022/12/19 11:18:45;;;;;;;6.50;5.70;;;19.20;52.30;;;;;;4976651;28;20259;-66
2022/12/19 11:21:23;;;;;;;5.78;5.18;;;19.20;52.20;;;;;;4994047;28;20184;-67
2022/12/19 11:24:01;;;;;;;6.05;4.93;;;19.20;52.20;;;;;;4992936;28;20176;-66
2022/12/19 11:26:49;;;;;;;5.70;5.13;;;19.20;52.30;;;;;;4992991;28;20187;-66
2022/12/19 11:29:35;;;;;;;5.95;5.35;;;19.20;52.30;;;;;;4992408;28;20220;-66
2022/12/19 11:32:01;;;;;;;5.57;5.07;;;19.20;52.20;;;;;;4973689;28;20178;-68
2022/12/19 11:34:34;;;;;;;5.90;5.30;;;19.20;52.20;;;;;;4957708;28;20240;-69
2022/12/19 11:37:45;;;;;;;7.55;5.68;;;19.20;52.20;;;;;;4957022;28;20198;-69
2022/12/19 11:40:33;;;;;;;6.28;5.13;;;19.30;52.30;;;;;;4988138;28;20229;-69
2022/12/19 11:43:36;;;;;;;5.57;4.95;;;19.30;52.30;;;;;;4974760;28;20555;-68
2022/12/19 11:46:07;;;;;;;6.88;5.25;;;19.30;52.30;;;;;;4973117;28;20263;-69
2022/12/19 11:48:51;;;;;;;5.68;5.03;;;19.30;52.90;;;;;;4972837;28;20221;-69
2022/12/19 11:51:49;;;;;;;5.80;5.03;;;19.20;52.20;;;;;;4972994;28;20212;-69
2022/12/19 11:54:30;;;;;;;5.25;4.53;;;19.30;52.30;;;;;;4975762;28;20258;-68
2022/12/19 11:56:56;;;;;;;5.10;4.60;;;19.30;52.30;;;;;;4992275;28;20196;-68
2022/12/19 11:59:34;;;;;;;5.82;5.00;;;19.30;52.30;;;;;;4991455;28;20223;-68
2022/12/19 12:02:18;;;;;;;5.13;4.63;;;19.30;52.30;;;;;;4992073;28;20180;-70
2022/12/19 12:05:37;;;;;;;5.22;4.70;;;19.30;52.40;;;;;;4976208;28;20216;-70
2022/12/19 12:08:28;;;;;;;5.70;4.55;;;19.30;52.30;;;;;;4972406;28;20291;-70
2022/12/19 12:11:16;;;;;;;5.20;4.70;;;19.30;52.20;;;;;;4991804;28;20189;-70
2022/12/19 12:14:21;;;;;;;5.07;4.57;;;19.30;52.30;;;;;;4975471;28;20200;-70
2022/12/19 12:16:56;;;;;;;6.35;5.13;;;19.30;52.30;;;;;;4991799;28;20199;-70
2022/12/19 12:19:42;;;;;;;5.50;4.60;;;19.30;52.40;;;;;;4991101;28;20211;-70
2022/12/19 12:23:00;;;;;;;5.95;5.07;;;19.30;52.30;;;;;;4975191;28;20196;-70
2022/12/19 12:25:51;;;;;;;5.32;4.40;;;19.40;52.40;;;;;;4974164;28;20215;-70
2022/12/19 12:28:38;;;;;;;5.63;4.78;;;19.30;52.30;;;;;;4975067;28;20229;-70
2022/12/19 12:31:26;;;;;;;5.63;4.95;;;19.30;52.40;;;;;;4984734;28;20195;-70
2022/12/19 12:34:31;;;;;;;5.72;4.35;;;19.30;52.20;;;;;;4975635;28;20185;-69
2022/12/19 12:37:18;;;;;;;5.40;4.40;;;19.30;52.20;;;;;;4992103;28;20196;-70
2022/12/19 12:40:16;;;;;;;5.95;4.95;;;19.30;52.90;;;;;;4991848;28;20303;-70
2022/12/19 12:43:39;;;;;;;5.13;4.57;;;19.30;52.90;;;;;;4972286;28;20174;-69
2022/12/19 12:46:15;;;;;;;5.40;4.20;;;19.30;52.20;;;;;;4972380;28;20182;-69
2022/12/19 12:48:52;;;;;;;4.45;4.03;;;19.30;52.20;;;;;;4972205;28;20760;-69
2022/12/19 12:51:19;;;;;;;5.30;4.38;;;19.30;52.30;;;;;;4992434;28;20204;-69
2022/12/19 12:53:47;;;;;;;5.13;4.63;;;19.30;52.30;;;;;;4977512;28;20568;-70
2022/12/19 12:56:16;;;;;;;6.60;5.07;;;19.30;52.40;;;;;;4976503;28;20188;-70
2022/12/19 12:58:45;;;;;;;5.57;4.38;;;19.30;52.20;;;;;;4976232;28;20228;-70
2022/12/19 13:01:18;;;;;;;5.03;4.53;;;19.30;52.20;;;;;;4992223;28;20186;-69
2022/12/19 13:03:57;;;;;;;5.32;4.82;;;19.40;52.30;;;;;;4978361;28;20268;-69
2022/12/19 13:06:38;;;;;;;4.82;4.38;;;19.30;52.20;;;;;;4995458;28;20594;-69
2022/12/19 13:09:07;;;;;;;4.53;4.13;;;19.40;52.40;;;;;;4979052;28;20220;-70
2022/12/19 13:14:35;;;;;;;4.40;4.00;;;19.40;52.40;;;;;;4995273;28;20645;-69
2022/12/19 13:17:05;;;;;;;4.82;4.22;;;19.40;52.50;;;;;;4994565;28;20275;-69
2022/12/19 13:20:13;;;;;;;6.47;5.22;;;19.40;52.40;;;;;;4988950;28;20214;-70
2022/12/19 13:22:43;;;;;;;7.07;6.38;;;19.40;52.40;;;;;;5008542;28;20193;-70
2022/12/19 13:25:35;;;;;;;5.10;4.35;;;19.40;52.40;;;;;;4993876;28;20193;-69
2022/12/19 13:28:00;;;;;;;5.68;5.10;;;19.40;52.40;;;;;;4978900;28;20247;-69
2022/12/19 13:30:34;;;;;;;6.03;4.97;;;19.40;52.40;;;;;;4995345;28;20221;-70